createdAt,value
2023-01-15T00:00:46.384Z,97974.19
2023-01-15T00:01:48.262Z,97976.75
2023-01-15T00:02:51.091Z,97986.09
2023-01-15T00:03:53.910Z,97983.44
2023-01-15T00:04:56.632Z,97976.59
2023-01-15T00:06:02.293Z,97978.22
2023-01-15T00:07:05.336Z,97979.00
2023-01-15T00:08:07.136Z,97973.03
2023-01-15T00:09:14.806Z,97971.22
2023-01-15T00:10:18.215Z,97965.09
2023-01-15T00:11:22.786Z,97959.06
2023-01-15T00:12:25.725Z,97962.28
2023-01-15T00:13:28.920Z,97952.88
2023-01-15T00:14:31.686Z,97954.34
2023-01-15T00:15:33.471Z,97944.84
2023-01-15T00:16:36.436Z,97940.44
2023-01-15T00:17:38.220Z,97942.09
2023-01-15T00:18:41.160Z,97935.22
2023-01-15T00:19:42.966Z,97930.75
2023-01-15T00:20:45.667Z,97933.22
2023-01-15T00:21:47.566Z,97929.69
2023-01-15T00:22:50.764Z,97930.44
2023-01-15T00:24:11.759Z,97935.41
2023-01-15T00:25:32.355Z,97929.34
2023-01-15T00:26:54.854Z,97919.84
2023-01-15T00:27:57.737Z,97918.00
2023-01-15T00:28:59.539Z,97916.28
2023-01-15T00:30:02.774Z,97913.56
2023-01-15T00:31:05.192Z,97909.97
2023-01-15T00:32:09.456Z,97907.31
2023-01-15T00:33:11.492Z,97902.13
2023-01-15T00:34:14.229Z,97901.19
2023-01-15T00:35:17.840Z,97906.34
2023-01-15T00:36:20.692Z,97901.19
2023-01-15T00:37:22.961Z,97896.88
2023-01-15T00:38:25.731Z,97890.94
2023-01-15T00:39:28.011Z,97900.28
2023-01-15T00:40:30.783Z,97900.38
2023-01-15T00:41:33.065Z,97900.44
2023-01-15T00:42:37.431Z,97897.97
2023-01-15T00:43:39.410Z,97903.19
2023-01-15T00:44:42.256Z,97893.84
2023-01-15T00:45:44.442Z,97898.22
2023-01-15T00:46:47.416Z,97895.84
2023-01-15T00:47:50.888Z,97894.25
2023-01-15T00:48:54.131Z,97896.91
2023-01-15T00:49:57.252Z,97895.25
2023-01-15T00:50:59.968Z,97903.00
2023-01-15T00:52:02.190Z,97909.00
2023-01-15T00:53:05.061Z,97908.91
2023-01-15T00:54:06.999Z,97907.19
2023-01-15T00:55:10.446Z,97900.16
2023-01-15T00:56:12.268Z,97900.97
2023-01-15T00:57:15.327Z,97894.00
2023-01-15T00:58:19.277Z,97897.28
2023-01-15T00:59:22.190Z,97884.47
2023-01-15T01:00:23.980Z,97882.66
2023-01-15T01:01:27.402Z,97877.53
2023-01-15T01:02:29.299Z,97874.78
2023-01-15T01:03:32.086Z,97870.50
2023-01-15T01:04:33.889Z,97867.81
2023-01-15T01:05:36.627Z,97863.41
2023-01-15T01:06:39.425Z,97870.97
2023-01-15T01:07:41.491Z,97863.06
2023-01-15T01:08:46.052Z,97866.41
2023-01-15T01:09:48.828Z,97860.25
2023-01-15T01:11:02.461Z,97867.78
2023-01-15T01:12:05.737Z,97863.31
2023-01-15T01:13:07.510Z,97864.88
2023-01-15T01:14:12.627Z,97853.63
2023-01-15T01:15:15.849Z,97853.31
2023-01-15T01:16:28.107Z,97852.19
2023-01-15T01:17:31.118Z,97848.50
2023-01-15T01:18:32.904Z,97855.00
2023-01-15T01:19:37.717Z,97844.31
2023-01-15T01:20:39.525Z,97846.16
2023-01-15T01:21:43.269Z,97841.19
2023-01-15T01:22:48.487Z,97836.06
2023-01-15T01:23:52.720Z,97838.72
2023-01-15T01:24:54.527Z,97833.53
2023-01-15T01:26:21.607Z,97829.06
2023-01-15T01:27:23.939Z,97829.00
2023-01-15T01:28:26.734Z,97828.84
2023-01-15T01:29:29.855Z,97828.69
2023-01-15T01:30:32.687Z,97827.75
2023-01-15T01:31:34.506Z,97821.69
2023-01-15T01:32:37.328Z,97826.03
2023-01-15T01:33:39.246Z,97822.53
2023-01-15T01:34:42.155Z,97828.59
2023-01-15T01:35:48.371Z,97822.81
2023-01-15T01:36:51.169Z,97816.09
2023-01-15T01:37:53.009Z,97813.84
2023-01-15T01:38:55.862Z,97809.06
2023-01-15T01:39:58.650Z,97816.06
2023-01-15T01:41:00.490Z,97806.13
2023-01-15T01:42:03.431Z,97813.22
2023-01-15T01:43:06.450Z,97802.38
2023-01-15T01:44:47.894Z,97802.63
2023-01-15T01:45:51.139Z,97802.31
2023-01-15T01:46:53.992Z,97804.44
2023-01-15T01:47:58.671Z,97802.28
2023-01-15T01:49:05.777Z,97800.19
2023-01-15T01:50:11.187Z,97783.63
2023-01-15T01:51:14.039Z,97792.81
2023-01-15T01:52:18.698Z,97791.72
2023-01-15T01:53:23.360Z,97795.88
2023-01-15T01:54:27.015Z,97794.00
2023-01-15T01:55:31.293Z,97797.19
2023-01-15T01:56:35.165Z,97801.53
2023-01-15T01:57:38.696Z,97795.41
2023-01-15T01:59:00.143Z,97798.69
2023-01-15T02:00:06.802Z,97799.44
2023-01-15T02:01:18.176Z,97797.78
2023-01-15T02:02:22.173Z,97797.78
2023-01-15T02:03:28.617Z,97798.50
2023-01-15T02:04:30.876Z,97787.47
2023-01-15T02:05:39.215Z,97788.28
2023-01-15T02:06:42.640Z,97800.47
2023-01-15T02:07:45.417Z,97798.94
2023-01-15T02:08:47.473Z,97799.16
2023-01-15T02:09:50.240Z,97799.16
2023-01-15T02:10:54.085Z,97795.63
2023-01-15T02:12:09.124Z,97791.19
2023-01-15T02:13:14.959Z,97787.66
2023-01-15T02:14:22.921Z,97788.38
2023-01-15T02:15:28.939Z,97786.50
2023-01-15T02:16:36.639Z,97780.53
2023-01-15T02:17:44.347Z,97779.78
2023-01-15T02:18:54.509Z,97777.47
2023-01-15T02:20:06.722Z,97766.31
2023-01-15T02:21:14.516Z,97767.22
2023-01-15T02:22:24.913Z,97775.69
2023-01-15T02:23:54.678Z,97776.72
2023-01-15T02:25:04.049Z,97771.88
2023-01-15T02:26:26.598Z,97763.94
2023-01-15T02:27:31.354Z,97767.44
2023-01-15T02:28:35.057Z,97762.28
2023-01-15T02:29:48.463Z,97763.22
2023-01-15T02:30:57.330Z,97766.72
2023-01-15T02:32:05.176Z,97758.06
2023-01-15T02:33:10.078Z,97768.28
2023-01-15T02:34:17.050Z,97758.75
2023-01-15T02:35:23.235Z,97758.63
2023-01-15T02:36:28.163Z,97762.88
2023-01-15T02:37:35.009Z,97762.03
2023-01-15T02:38:42.145Z,97767.94
2023-01-15T02:39:46.111Z,97766.19
2023-01-15T02:40:52.184Z,97762.66
2023-01-15T02:41:59.313Z,97763.47
2023-01-15T02:43:08.143Z,97746.81
2023-01-15T02:44:12.022Z,97744.94
2023-01-15T02:45:17.213Z,97731.78
2023-01-15T02:46:21.208Z,97739.31
2023-01-15T02:47:27.484Z,97743.31
2023-01-15T02:48:34.183Z,97734.16
2023-01-15T02:49:37.868Z,97739.81
2023-01-15T02:50:45.222Z,97737.72
2023-01-15T02:51:53.064Z,97738.19
2023-01-15T02:52:59.957Z,97730.91
2023-01-15T02:54:08.250Z,97732.28
2023-01-15T02:55:13.778Z,97739.72
2023-01-15T02:56:21.963Z,97744.53
2023-01-15T02:57:29.398Z,97752.06
2023-01-15T02:58:38.882Z,97754.19
2023-01-15T02:59:46.013Z,97738.91
2023-01-15T03:00:50.067Z,97740.06
2023-01-15T03:01:56.499Z,97731.59
2023-01-15T03:03:03.473Z,97727.59
2023-01-15T03:04:10.448Z,97737.44
2023-01-15T03:05:18.256Z,97732.19
2023-01-15T03:06:26.751Z,97736.41
2023-01-15T03:07:37.559Z,97724.28
2023-01-15T03:08:39.689Z,97726.06
2023-01-15T03:09:44.789Z,97726.75
2023-01-15T03:10:50.979Z,97730.75
2023-01-15T03:12:02.495Z,97726.25
2023-01-15T03:13:14.956Z,97725.22
2023-01-15T03:14:30.849Z,97728.25
2023-01-15T03:15:58.263Z,97714.94
2023-01-15T03:17:03.922Z,97725.03
2023-01-15T03:18:06.551Z,97724.81
2023-01-15T03:19:20.486Z,97714.31
2023-01-15T03:20:26.109Z,97710.69
2023-01-15T03:21:31.563Z,97715.72
2023-01-15T03:22:34.479Z,97710.19
2023-01-15T03:23:39.804Z,97712.41
2023-01-15T03:24:46.627Z,97712.03
2023-01-15T03:25:50.725Z,97704.00
2023-01-15T03:26:54.111Z,97702.97
2023-01-15T03:27:59.585Z,97711.41
2023-01-15T03:29:05.735Z,97705.19
2023-01-15T03:30:15.086Z,97704.91
2023-01-15T03:31:17.139Z,97705.50
2023-01-15T03:32:20.921Z,97702.44
2023-01-15T03:33:22.783Z,97697.69
2023-01-15T03:34:27.972Z,97706.03
2023-01-15T03:35:47.873Z,97698.00
2023-01-15T03:37:00.351Z,97695.31
2023-01-15T03:38:03.883Z,97700.22
2023-01-15T03:39:09.341Z,97699.41
2023-01-15T03:40:31.668Z,97700.34
2023-01-15T03:41:43.778Z,97696.00
2023-01-15T03:43:12.003Z,97695.03
2023-01-15T03:44:23.617Z,97698.59
2023-01-15T03:45:32.616Z,97699.53
2023-01-15T03:46:42.763Z,97686.56
2023-01-15T03:47:54.791Z,97688.47
2023-01-15T03:49:03.845Z,97680.81
2023-01-15T03:50:11.616Z,97675.50
2023-01-15T03:51:21.382Z,97682.44
2023-01-15T03:52:27.190Z,97674.94
2023-01-15T03:53:33.102Z,97682.44
2023-01-15T03:54:43.188Z,97677.97
2023-01-15T03:55:53.828Z,97677.72
2023-01-15T03:56:59.915Z,97671.72
2023-01-15T03:58:08.351Z,97676.06
2023-01-15T03:59:18.299Z,97682.91
2023-01-15T04:00:32.295Z,97677.59
2023-01-15T04:01:37.219Z,97674.06
2023-01-15T04:02:40.743Z,97673.25
2023-01-15T04:03:44.872Z,97667.25
2023-01-15T04:04:47.534Z,97663.84
2023-01-15T04:05:51.887Z,97658.66
2023-01-15T04:06:56.171Z,97653.47
2023-01-15T04:08:00.045Z,97662.97
2023-01-15T04:09:05.525Z,97648.97
2023-01-15T04:10:10.201Z,97653.06
2023-01-15T04:11:12.503Z,97641.75
2023-01-15T04:12:20.229Z,97643.97
2023-01-15T04:13:24.155Z,97641.91
2023-01-15T04:14:31.212Z,97638.94
2023-01-15T04:15:35.118Z,97636.22
2023-01-15T04:16:39.580Z,97641.16
2023-01-15T04:17:41.943Z,97633.25
2023-01-15T04:18:44.750Z,97629.81
2023-01-15T04:19:46.601Z,97633.13
2023-01-15T04:20:50.355Z,97618.25
2023-01-15T04:21:52.408Z,97625.66
2023-01-15T04:22:55.162Z,97624.44
2023-01-15T04:23:57.079Z,97630.88
2023-01-15T04:25:00.106Z,97628.00
2023-01-15T04:26:02.017Z,97630.34
2023-01-15T04:27:04.809Z,97624.19
2023-01-15T04:28:07.762Z,97630.09
2023-01-15T04:29:11.381Z,97616.97
2023-01-15T04:30:13.580Z,97617.41
2023-01-15T04:31:18.745Z,97628.31
2023-01-15T04:32:20.607Z,97624.66
2023-01-15T04:33:23.342Z,97622.88
2023-01-15T04:34:25.867Z,97628.75
2023-01-15T04:35:28.692Z,97625.91
2023-01-15T04:36:35.241Z,97624.69
2023-01-15T04:37:37.147Z,97629.47
2023-01-15T04:38:39.870Z,97630.16
2023-01-15T04:39:41.627Z,97627.31
2023-01-15T04:41:04.454Z,97628.94
2023-01-15T04:42:24.890Z,97623.63
2023-01-15T04:43:45.198Z,97619.94
2023-01-15T04:44:47.915Z,97621.44
2023-01-15T04:45:49.653Z,97622.81
2023-01-15T04:47:12.607Z,97626.78
2023-01-15T04:48:14.613Z,97629.09
2023-01-15T04:49:18.673Z,97619.94
2023-01-15T04:50:20.504Z,97628.31
2023-01-15T04:51:23.249Z,97614.91
2023-01-15T04:52:25.978Z,97612.88
2023-01-15T04:53:27.863Z,97615.19
2023-01-15T04:54:31.017Z,97610.41
2023-01-15T04:55:32.881Z,97612.06
2023-01-15T04:56:39.957Z,97603.84
2023-01-15T04:57:41.724Z,97608.91
2023-01-15T04:58:44.545Z,97610.56
2023-01-15T04:59:47.426Z,97607.94
2023-01-15T05:00:49.183Z,97601.78
2023-01-15T05:02:03.311Z,97607.81
2023-01-15T05:03:08.376Z,97617.38
2023-01-15T05:04:11.352Z,97614.78
2023-01-15T05:05:13.201Z,97601.78
2023-01-15T05:06:17.606Z,97609.59
2023-01-15T05:07:20.318Z,97601.53
2023-01-15T05:08:22.094Z,97596.34
2023-01-15T05:09:25.083Z,97593.59
2023-01-15T05:10:26.880Z,97599.59
2023-01-15T05:11:30.024Z,97595.22
2023-01-15T05:12:31.911Z,97597.00
2023-01-15T05:13:35.164Z,97589.22
2023-01-15T05:14:36.918Z,97592.78
2023-01-15T05:15:41.040Z,97584.97
2023-01-15T05:16:42.885Z,97584.16
2023-01-15T05:17:45.586Z,97587.59
2023-01-15T05:18:48.810Z,97579.94
2023-01-15T05:19:51.533Z,97580.06
2023-01-15T05:20:53.293Z,97579.09
2023-01-15T05:22:14.892Z,97580.19
2023-01-15T05:23:16.741Z,97578.72
2023-01-15T05:24:20.491Z,97577.19
2023-01-15T05:25:23.146Z,97579.13
2023-01-15T05:26:26.171Z,97578.41
2023-01-15T05:27:28.002Z,97572.41
2023-01-15T05:28:30.754Z,97567.34
2023-01-15T05:29:32.837Z,97568.19
2023-01-15T05:30:35.582Z,97565.59
2023-01-15T05:31:37.375Z,97570.78
2023-01-15T05:32:40.119Z,97562.97
2023-01-15T05:33:42.331Z,97562.16
2023-01-15T05:34:46.377Z,97562.31
2023-01-15T05:35:48.223Z,97566.00
2023-01-15T05:36:51.389Z,97561.75
2023-01-15T05:37:53.169Z,97556.72
2023-01-15T05:38:57.935Z,97562.84
2023-01-15T05:39:59.692Z,97561.19
2023-01-15T05:41:25.304Z,97558.75
2023-01-15T05:42:27.769Z,97555.59
2023-01-15T05:43:30.521Z,97559.16
2023-01-15T05:44:32.678Z,97556.72
2023-01-15T05:45:35.946Z,97554.22
2023-01-15T05:46:38.941Z,97549.19
2023-01-15T05:47:41.717Z,97561.34
2023-01-15T05:48:43.625Z,97556.16
2023-01-15T05:49:48.450Z,97558.91
2023-01-15T05:50:50.221Z,97556.41
2023-01-15T05:51:54.867Z,97560.53
2023-01-15T05:52:57.495Z,97555.34
2023-01-15T05:54:00.439Z,97554.53
2023-01-15T05:55:03.102Z,97554.53
2023-01-15T05:56:06.562Z,97548.38
2023-01-15T05:57:12.788Z,97544.94
2023-01-15T05:58:14.795Z,97547.69
2023-01-15T05:59:18.703Z,97549.59
2023-01-15T06:00:21.569Z,97550.41
2023-01-15T06:01:24.497Z,97553.16
2023-01-15T06:02:27.322Z,97547.13
2023-01-15T06:03:29.150Z,97549.88
2023-01-15T06:04:32.289Z,97553.41
2023-01-15T06:05:35.401Z,97552.59
2023-01-15T06:06:38.302Z,97546.72
2023-01-15T06:07:40.127Z,97546.88
2023-01-15T06:08:42.953Z,97544.38
2023-01-15T06:09:45.325Z,97549.59
2023-01-15T06:10:48.584Z,97542.91
2023-01-15T06:11:53.601Z,97537.72
2023-01-15T06:12:55.454Z,97537.84
2023-01-15T06:13:58.349Z,97539.59
2023-01-15T06:15:00.103Z,97551.91
2023-01-15T06:16:03.165Z,97542.47
2023-01-15T06:17:06.449Z,97543.56
2023-01-15T06:18:08.327Z,97546.44
2023-01-15T06:19:12.860Z,97546.56
2023-01-15T06:20:14.716Z,97543.53
2023-01-15T06:21:19.313Z,97541.91
2023-01-15T06:22:22.048Z,97550.91
2023-01-15T06:23:23.900Z,97543.41
2023-01-15T06:24:26.720Z,97544.38
2023-01-15T06:25:28.564Z,97550.50
2023-01-15T06:26:31.453Z,97555.00
2023-01-15T06:27:33.365Z,97546.66
2023-01-15T06:28:36.284Z,97546.94
2023-01-15T06:29:38.216Z,97541.19
2023-01-15T06:30:41.478Z,97547.59
2023-01-15T06:31:43.323Z,97549.38
2023-01-15T06:32:46.510Z,97553.88
2023-01-15T06:33:48.692Z,97546.25
2023-01-15T06:34:51.515Z,97542.94
2023-01-15T06:35:53.734Z,97547.56
2023-01-15T06:36:57.826Z,97547.84
2023-01-15T06:37:59.724Z,97548.09
2023-01-15T06:39:05.071Z,97545.66
2023-01-15T06:40:08.328Z,97546.84
2023-01-15T06:41:27.971Z,97553.25
2023-01-15T06:42:48.222Z,97550.13
2023-01-15T06:44:08.395Z,97547.63
2023-01-15T06:45:29.648Z,97545.91
2023-01-15T06:46:49.855Z,97545.19
2023-01-15T06:47:53.068Z,97542.59
2023-01-15T06:48:54.869Z,97546.81
2023-01-15T06:49:59.175Z,97543.31
2023-01-15T06:51:01.008Z,97540.72
2023-01-15T06:52:05.755Z,97541.78
2023-01-15T06:53:08.497Z,97537.41
2023-01-15T06:54:10.349Z,97539.03
2023-01-15T06:55:13.093Z,97550.22
2023-01-15T06:56:15.039Z,97538.22
2023-01-15T06:57:18.882Z,97536.59
2023-01-15T06:58:22.230Z,97542.88
2023-01-15T06:59:24.992Z,97533.44
2023-01-15T07:00:28.074Z,97536.84
2023-01-15T07:01:31.615Z,97534.97
2023-01-15T07:02:34.517Z,97530.59
2023-01-15T07:03:36.777Z,97533.88
2023-01-15T07:04:39.575Z,97538.22
2023-01-15T07:05:41.411Z,97541.53
2023-01-15T07:06:44.639Z,97543.31
2023-01-15T07:07:47.734Z,97537.16
2023-01-15T07:08:50.477Z,97543.03
2023-01-15T07:09:53.240Z,97543.72
2023-01-15T07:10:55.015Z,97546.84
2023-01-15T07:11:57.804Z,97546.72
2023-01-15T07:13:00.547Z,97544.84
2023-01-15T07:14:08.083Z,97545.50
2023-01-15T07:15:12.098Z,97543.63
2023-01-15T07:16:26.897Z,97546.06
2023-01-15T07:17:29.777Z,97541.56
2023-01-15T07:18:32.980Z,97542.28
2023-01-15T07:19:35.951Z,97537.75
2023-01-15T07:20:37.738Z,97537.50
2023-01-15T07:21:40.527Z,97541.47
2023-01-15T07:22:42.412Z,97542.00
2023-01-15T07:23:46.536Z,97545.16
2023-01-15T07:24:48.299Z,97543.25
2023-01-15T07:25:51.148Z,97543.56
2023-01-15T07:26:52.925Z,97550.91
2023-01-15T07:27:55.694Z,97541.91
2023-01-15T07:28:57.503Z,97550.41
2023-01-15T07:30:00.241Z,97548.47
2023-01-15T07:31:02.149Z,97552.44
2023-01-15T07:32:05.487Z,97546.97
2023-01-15T07:33:07.543Z,97557.78
2023-01-15T07:34:10.964Z,97561.75
2023-01-15T07:35:12.800Z,97559.56
2023-01-15T07:36:15.673Z,97556.56
2023-01-15T07:37:18.469Z,97564.09
2023-01-15T07:38:20.968Z,97557.63
2023-01-15T07:39:25.147Z,97553.69
2023-01-15T07:40:26.886Z,97550.66
2023-01-15T07:41:47.543Z,97561.47
2023-01-15T07:43:08.393Z,97559.28
2023-01-15T07:44:29.320Z,97552.03
2023-01-15T07:45:49.586Z,97557.78
2023-01-15T07:47:09.823Z,97547.91
2023-01-15T07:48:29.967Z,97557.22
2023-01-15T07:49:48.959Z,97550.25
2023-01-15T07:50:51.756Z,97555.19
2023-01-15T07:51:53.517Z,97542.84
2023-01-15T07:52:56.274Z,97553.09
2023-01-15T07:53:58.013Z,97539.84
2023-01-15T07:55:03.868Z,97537.09
2023-01-15T07:56:24.977Z,97541.47
2023-01-15T07:57:26.854Z,97544.63
2023-01-15T07:58:29.625Z,97537.50
2023-01-15T07:59:31.471Z,97540.78
2023-01-15T08:00:34.310Z,97533.00
2023-01-15T08:01:36.214Z,97531.06
2023-01-15T08:02:39.167Z,97528.31
2023-01-15T08:03:40.990Z,97530.81
2023-01-15T08:04:43.804Z,97536.66
2023-01-15T08:05:46.679Z,97528.88
2023-01-15T08:06:48.447Z,97525.44
2023-01-15T08:07:51.182Z,97531.31
2023-01-15T08:08:53.102Z,97528.59
2023-01-15T08:09:55.840Z,97530.91
2023-01-15T08:11:21.540Z,97518.59
2023-01-15T08:12:41.958Z,97514.22
2023-01-15T08:14:02.130Z,97517.75
2023-01-15T08:15:14.320Z,97522.00
2023-01-15T08:16:16.341Z,97528.03
2023-01-15T08:17:19.106Z,97527.72
2023-01-15T08:18:20.988Z,97506.00
2023-01-15T08:19:25.075Z,97518.03
2023-01-15T08:20:28.117Z,97516.09
2023-01-15T08:21:30.018Z,97523.63
2023-01-15T08:22:32.849Z,97518.28
2023-01-15T08:23:35.601Z,97522.38
2023-01-15T08:24:37.485Z,97533.44
2023-01-15T08:25:40.228Z,97530.84
2023-01-15T08:26:43.314Z,97523.03
2023-01-15T08:27:46.348Z,97530.84
2023-01-15T08:28:48.102Z,97537.66
2023-01-15T08:29:51.011Z,97528.25
2023-01-15T08:30:54.155Z,97538.50
2023-01-15T08:31:56.927Z,97543.69
2023-01-15T08:33:03.622Z,97543.56
2023-01-15T08:34:05.488Z,97553.81
2023-01-15T08:35:08.947Z,97551.22
2023-01-15T08:36:11.681Z,97550.25
2023-01-15T08:37:13.512Z,97548.47
2023-01-15T08:38:16.309Z,97548.47
2023-01-15T08:39:18.295Z,97547.50
2023-01-15T08:40:21.967Z,97543.13
2023-01-15T08:41:23.714Z,97545.59
2023-01-15T08:42:28.145Z,97546.25
2023-01-15T08:43:32.695Z,97541.06
2023-01-15T08:44:34.468Z,97548.03
2023-01-15T08:45:37.194Z,97547.22
2023-01-15T08:46:40.041Z,97540.41
2023-01-15T08:47:42.789Z,97508.38
2023-01-15T08:48:44.764Z,97528.34
2023-01-15T08:49:48.031Z,97521.38
2023-01-15T08:50:50.575Z,97518.78
2023-01-15T08:51:53.315Z,97520.56
2023-01-15T08:52:55.354Z,97525.59
2023-01-15T08:53:58.159Z,97542.03
2023-01-15T08:55:00.874Z,97529.19
2023-01-15T08:56:02.876Z,97521.22
2023-01-15T08:57:05.628Z,97525.31
2023-01-15T08:58:08.745Z,97511.22
2023-01-15T08:59:11.772Z,97512.03
2023-01-15T09:00:17.445Z,97507.63
2023-01-15T09:01:19.833Z,97524.88
2023-01-15T09:02:22.615Z,97521.31
2023-01-15T09:03:24.357Z,97513.50
2023-01-15T09:04:27.187Z,97503.78
2023-01-15T09:05:29.115Z,97499.41
2023-01-15T09:06:31.832Z,97509.66
2023-01-15T09:07:35.239Z,97509.66
2023-01-15T09:08:39.039Z,97508.56
2023-01-15T09:09:40.860Z,97504.34
2023-01-15T09:10:43.687Z,97499.78
2023-01-15T09:11:46.833Z,97493.47
2023-01-15T09:12:48.860Z,97498.66
2023-01-15T09:13:54.036Z,97509.78
2023-01-15T09:15:01.686Z,97500.88
2023-01-15T09:16:09.844Z,97501.81
2023-01-15T09:17:12.071Z,97507.75
2023-01-15T09:18:18.990Z,97499.78
2023-01-15T09:19:20.739Z,97495.41
2023-01-15T09:20:24.058Z,97502.91
2023-01-15T09:21:26.937Z,97504.53
2023-01-15T09:22:30.756Z,97500.00
2023-01-15T09:23:33.656Z,97495.78
2023-01-15T09:24:35.430Z,97502.44
2023-01-15T09:25:38.351Z,97492.72
2023-01-15T09:26:40.480Z,97495.03
2023-01-15T09:27:43.727Z,97490.66
2023-01-15T09:28:45.495Z,97492.31
2023-01-15T09:29:49.555Z,97490.34
2023-01-15T09:30:51.573Z,97491.19
2023-01-15T09:31:54.365Z,97486.66
2023-01-15T09:32:56.358Z,97497.88
2023-01-15T09:33:59.924Z,97480.47
2023-01-15T09:35:02.487Z,97491.03
2023-01-15T09:36:05.824Z,97490.91
2023-01-15T09:37:07.766Z,97496.91
2023-01-15T09:38:12.595Z,97489.75
2023-01-15T09:39:14.396Z,97487.97
2023-01-15T09:40:32.419Z,97490.59
2023-01-15T09:42:07.835Z,97488.50
2023-01-15T09:43:16.313Z,97486.06
2023-01-15T09:44:30.379Z,97497.13
2023-01-15T09:45:39.250Z,97490.97
2023-01-15T09:46:48.350Z,97490.84
2023-01-15T09:48:04.283Z,97486.94
2023-01-15T09:49:14.236Z,97488.72
2023-01-15T09:50:25.095Z,97493.00
2023-01-15T09:51:33.854Z,97490.06
2023-01-15T09:53:02.071Z,97486.50
2023-01-15T09:54:17.511Z,97477.75
2023-01-15T09:55:22.478Z,97478.41
2023-01-15T09:56:26.000Z,97471.41
2023-01-15T09:57:29.124Z,97472.91
2023-01-15T09:58:35.005Z,97477.00
2023-01-15T09:59:39.542Z,97472.31
2023-01-15T10:00:44.999Z,97473.66
2023-01-15T10:01:48.790Z,97478.56
2023-01-15T10:02:53.396Z,97480.06
2023-01-15T10:04:01.296Z,97475.50
2023-01-15T10:05:09.173Z,97470.94
2023-01-15T10:06:15.176Z,97467.41
2023-01-15T10:07:21.061Z,97461.06
2023-01-15T10:08:26.240Z,97463.50
2023-01-15T10:09:31.436Z,97466.91
2023-01-15T10:10:37.172Z,97463.38
2023-01-15T10:12:00.044Z,97452.97
2023-01-15T10:13:09.102Z,97463.00
2023-01-15T10:14:15.465Z,97470.28
2023-01-15T10:15:33.411Z,97456.91
2023-01-15T10:16:36.792Z,97461.09
2023-01-15T10:17:42.239Z,97458.94
2023-01-15T10:18:45.650Z,97456.09
2023-01-15T10:19:47.635Z,97451.34
2023-01-15T10:21:00.483Z,97458.78
2023-01-15T10:22:07.217Z,97456.09
2023-01-15T10:23:22.004Z,97450.50
2023-01-15T10:24:28.119Z,97448.34
2023-01-15T10:25:34.155Z,97447.16
2023-01-15T10:26:39.643Z,97448.41
2023-01-15T10:27:46.690Z,97447.91
2023-01-15T10:28:59.594Z,97435.31
2023-01-15T10:30:07.091Z,97436.56
2023-01-15T10:31:15.900Z,97442.84
2023-01-15T10:32:30.721Z,97443.66
2023-01-15T10:33:55.645Z,97441.22
2023-01-15T10:35:10.265Z,97433.44
2023-01-15T10:36:16.775Z,97424.81
2023-01-15T10:37:23.696Z,97435.75
2023-01-15T10:38:31.790Z,97426.16
2023-01-15T10:39:42.294Z,97420.81
2023-01-15T10:41:02.354Z,97414.50
2023-01-15T10:42:13.578Z,97415.31
2023-01-15T10:43:19.422Z,97416.81
2023-01-15T10:44:25.813Z,97412.44
2023-01-15T10:45:29.932Z,97409.72
2023-01-15T10:46:38.213Z,97409.56
2023-01-15T10:47:44.478Z,97409.56
2023-01-15T10:48:49.522Z,97399.00
2023-01-15T10:49:51.443Z,97404.19
2023-01-15T10:50:55.675Z,97401.47
2023-01-15T10:51:59.888Z,97392.81
2023-01-15T10:53:07.017Z,97402.28
2023-01-15T10:54:15.979Z,97397.38
2023-01-15T10:55:21.400Z,97405.00
2023-01-15T10:56:32.397Z,97394.75
2023-01-15T10:57:44.761Z,97390.53
2023-01-15T10:58:50.411Z,97393.28
2023-01-15T10:59:58.261Z,97399.31
2023-01-15T11:01:04.338Z,97388.09
2023-01-15T11:02:22.655Z,97387.38
2023-01-15T11:03:35.956Z,97394.63
2023-01-15T11:04:38.784Z,97393.97
2023-01-15T11:05:41.015Z,97385.66
2023-01-15T11:06:43.836Z,97380.06
2023-01-15T11:08:10.444Z,97379.56
2023-01-15T11:09:20.219Z,97385.47
2023-01-15T11:10:22.918Z,97380.88
2023-01-15T11:11:47.970Z,97380.66
2023-01-15T11:13:11.244Z,97384.78
2023-01-15T11:14:31.637Z,97377.72
2023-01-15T11:15:51.864Z,97378.16
2023-01-15T11:17:12.274Z,97367.38
2023-01-15T11:18:36.431Z,97369.31
2023-01-15T11:19:41.902Z,97366.31
2023-01-15T11:20:45.560Z,97372.75
2023-01-15T11:21:48.658Z,97360.88
2023-01-15T11:22:50.677Z,97361.28
2023-01-15T11:23:54.004Z,97357.88
2023-01-15T11:24:58.289Z,97353.81
2023-01-15T11:26:01.652Z,97352.19
2023-01-15T11:27:05.954Z,97350.66
2023-01-15T11:28:09.846Z,97353.09
2023-01-15T11:29:16.191Z,97355.72
2023-01-15T11:30:30.624Z,97347.78
2023-01-15T11:31:37.501Z,97347.78
2023-01-15T11:32:40.373Z,97344.22
2023-01-15T11:33:44.942Z,97343.25
2023-01-15T11:34:55.492Z,97331.09
2023-01-15T11:35:59.757Z,97333.56
2023-01-15T11:37:02.248Z,97330.50
2023-01-15T11:38:06.901Z,97329.56
2023-01-15T11:39:26.823Z,97336.09
2023-01-15T11:40:29.880Z,97340.34
2023-01-15T11:41:48.304Z,97335.81
2023-01-15T11:43:09.688Z,97324.44
2023-01-15T11:44:29.751Z,97324.31
2023-01-15T11:45:50.468Z,97331.00
2023-01-15T11:47:13.702Z,97328.13
2023-01-15T11:48:35.950Z,97327.81
2023-01-15T11:49:56.173Z,97323.16
2023-01-15T11:51:04.519Z,97322.19
2023-01-15T11:52:09.869Z,97319.28
2023-01-15T11:53:18.406Z,97318.84
2023-01-15T11:54:22.234Z,97316.75
2023-01-15T11:55:26.367Z,97309.50
2023-01-15T11:56:31.281Z,97304.94
2023-01-15T11:57:35.904Z,97308.91
2023-01-15T11:58:41.470Z,97310.25
2023-01-15T11:59:49.657Z,97314.19
2023-01-15T12:00:53.061Z,97312.94
2023-01-15T12:01:59.906Z,97303.84
2023-01-15T12:03:04.653Z,97305.19
2023-01-15T12:04:21.567Z,97301.50
2023-01-15T12:05:25.780Z,97307.06
2023-01-15T12:06:30.640Z,97303.47
2023-01-15T12:07:33.577Z,97307.59
2023-01-15T12:08:44.277Z,97300.47
2023-01-15T12:10:03.327Z,97306.16
2023-01-15T12:11:26.263Z,97303.44
2023-01-15T12:12:36.288Z,97294.66
2023-01-15T12:13:44.630Z,97293.53
2023-01-15T12:15:08.096Z,97289.66
2023-01-15T12:16:16.875Z,97282.66
2023-01-15T12:17:33.227Z,97290.47
2023-01-15T12:19:04.284Z,97291.28
2023-01-15T12:20:14.417Z,97294.84
2023-01-15T12:21:26.341Z,97293.06
2023-01-15T12:22:39.837Z,97291.28
2023-01-15T12:23:54.354Z,97286.91
2023-01-15T12:25:05.965Z,97288.56
2023-01-15T12:26:17.439Z,97288.41
2023-01-15T12:27:32.223Z,97282.22
2023-01-15T12:28:37.411Z,97284.81
2023-01-15T12:29:43.746Z,97281.41
2023-01-15T12:30:53.383Z,97281.41
2023-01-15T12:31:59.478Z,97287.25
2023-01-15T12:33:10.905Z,97291.50
2023-01-15T12:34:18.957Z,97277.53
2023-01-15T12:35:28.911Z,97286.00
2023-01-15T12:36:38.119Z,97274.59
2023-01-15T12:37:44.422Z,97291.72
2023-01-15T12:38:51.375Z,97277.72
2023-01-15T12:39:57.187Z,97279.34
2023-01-15T12:41:02.889Z,97277.56
2023-01-15T12:42:25.741Z,97281.00
2023-01-15T12:43:46.919Z,97269.94
2023-01-15T12:45:00.820Z,97271.34
2023-01-15T12:46:05.937Z,97277.81
2023-01-15T12:47:11.909Z,97270.34
2023-01-15T12:48:17.809Z,97273.22
2023-01-15T12:49:30.469Z,97276.81
2023-01-15T12:50:39.749Z,97270.94
2023-01-15T12:51:50.199Z,97268.31
2023-01-15T12:52:58.793Z,97264.78
2023-01-15T12:54:04.464Z,97264.63
2023-01-15T12:55:14.218Z,97266.56
2023-01-15T12:56:20.297Z,97264.78
2023-01-15T12:57:30.646Z,97263.81
2023-01-15T12:58:38.810Z,97258.75